createdAt,value
2019-01-03T00:00:52.460Z,86.68
2019-01-03T00:01:52.925Z,86.69
2019-01-03T00:02:53.403Z,86.69
2019-01-03T00:03:53.844Z,86.67
2019-01-03T00:04:54.304Z,86.69
2019-01-03T00:05:54.766Z,86.69
2019-01-03T00:06:55.227Z,86.69
2019-01-03T00:07:55.689Z,86.69
2019-01-03T00:08:56.147Z,86.69
2019-01-03T00:09:56.612Z,86.69
2019-01-03T00:10:57.090Z,86.69
2019-01-03T00:11:57.685Z,86.69
2019-01-03T00:12:57.993Z,86.69
2019-01-03T00:13:58.453Z,86.69
2019-01-03T00:14:58.923Z,86.69
2019-01-03T00:15:59.386Z,86.69
2019-01-03T00:16:59.845Z,86.69
2019-01-03T00:18:00.296Z,86.67
2019-01-03T00:19:00.757Z,86.65
2019-01-03T00:20:01.217Z,86.64
2019-01-03T00:21:01.677Z,86.64
2019-01-03T00:22:02.140Z,86.64
2019-01-03T00:23:02.625Z,86.64
2019-01-03T00:24:03.062Z,86.64
2019-01-03T00:25:03.521Z,86.64
2019-01-03T00:26:03.992Z,86.64
2019-01-03T00:27:04.444Z,86.64
2019-01-03T00:28:04.917Z,86.60
2019-01-03T00:29:05.366Z,86.59
2019-01-03T00:30:05.824Z,86.57
2019-01-03T00:31:06.286Z,86.55
2019-01-03T00:32:06.801Z,86.55
2019-01-03T00:33:07.208Z,86.54
2019-01-03T00:34:07.678Z,86.54
2019-01-03T00:35:08.141Z,86.55
2019-01-03T00:36:08.592Z,86.57
2019-01-03T00:37:09.051Z,86.55
2019-01-03T00:38:09.522Z,86.55
2019-01-03T00:39:09.982Z,86.57
2019-01-03T00:40:10.434Z,86.57
2019-01-03T00:41:10.893Z,86.57
2019-01-03T00:42:11.415Z,86.57
2019-01-03T00:43:11.850Z,86.59
2019-01-03T00:44:12.275Z,86.57
2019-01-03T00:45:12.740Z,86.57
2019-01-03T00:46:13.207Z,86.59
2019-01-03T00:47:13.659Z,86.57
2019-01-03T00:48:14.118Z,86.58
2019-01-03T00:49:14.590Z,86.57
2019-01-03T00:50:15.039Z,86.57
2019-01-03T00:51:15.502Z,86.57
2019-01-03T00:52:16.012Z,86.57
2019-01-03T00:53:16.421Z,86.57
2019-01-03T00:54:16.882Z,86.57
2019-01-03T00:55:17.344Z,86.57
2019-01-03T00:56:17.803Z,86.56
2019-01-03T00:57:18.264Z,86.52
2019-01-03T00:58:18.726Z,86.53
2019-01-03T00:59:19.198Z,86.52
2019-01-03T01:00:19.646Z,86.52
2019-01-03T01:01:20.107Z,86.52
2019-01-03T01:02:20.569Z,86.52
2019-01-03T01:03:21.043Z,86.52
2019-01-03T01:04:21.490Z,86.54
2019-01-03T01:05:21.949Z,86.56
2019-01-03T01:06:22.412Z,86.54
2019-01-03T01:07:22.925Z,86.56
2019-01-03T01:08:23.335Z,86.56
2019-01-03T01:09:23.791Z,86.56
2019-01-03T01:10:24.255Z,86.54
2019-01-03T01:11:24.715Z,86.54
2019-01-03T01:12:25.175Z,86.56
2019-01-03T01:13:25.635Z,86.54
2019-01-03T01:14:26.097Z,86.54
2019-01-03T01:15:26.559Z,86.54
2019-01-03T01:16:27.018Z,86.54
2019-01-03T01:17:27.491Z,86.56
2019-01-03T01:18:27.948Z,86.55
2019-01-03T01:19:28.410Z,86.55
2019-01-03T01:20:30.208Z,86.56
2019-01-03T01:21:29.321Z,86.56
2019-01-03T01:22:29.780Z,86.58
2019-01-03T01:23:30.245Z,86.56
2019-01-03T01:24:30.705Z,86.56
2019-01-03T01:25:31.162Z,86.56
2019-01-03T01:26:31.623Z,86.56
2019-01-03T01:27:32.087Z,86.56
2019-01-03T01:28:32.546Z,86.56
2019-01-03T01:29:33.005Z,86.57
2019-01-03T01:30:33.467Z,86.56
2019-01-03T01:31:33.929Z,86.57
2019-01-03T01:32:34.400Z,86.56
2019-01-03T01:33:34.848Z,86.56
2019-01-03T01:34:35.349Z,86.56
2019-01-03T01:35:35.771Z,86.56
2019-01-03T01:36:36.233Z,86.56
2019-01-03T01:37:36.691Z,86.57
2019-01-03T01:38:37.155Z,86.56
2019-01-03T01:39:37.614Z,86.56
2019-01-03T01:40:38.077Z,86.57
2019-01-03T01:41:38.533Z,86.56
2019-01-03T01:42:38.993Z,86.56
2019-01-03T01:43:39.455Z,86.56
2019-01-03T01:44:39.915Z,86.56
2019-01-03T01:45:40.375Z,86.56
2019-01-03T01:46:40.838Z,86.54
2019-01-03T01:47:41.300Z,86.56
2019-01-03T01:48:41.760Z,86.56
2019-01-03T01:49:42.230Z,86.56
2019-01-03T01:50:42.699Z,86.54
2019-01-03T01:51:43.139Z,86.52
2019-01-03T01:52:43.600Z,86.51
2019-01-03T01:53:44.061Z,86.51
2019-01-03T01:54:44.522Z,86.52
2019-01-03T01:55:44.992Z,86.51
2019-01-03T01:56:45.444Z,86.51
2019-01-03T01:57:45.902Z,86.51
2019-01-03T01:58:46.363Z,86.51
2019-01-03T01:59:46.824Z,86.51
2019-01-03T02:00:47.286Z,86.51
2019-01-03T02:01:47.746Z,86.51
2019-01-03T02:02:48.208Z,86.51
2019-01-03T02:03:48.669Z,86.50
2019-01-03T02:04:49.128Z,86.50
2019-01-03T02:05:49.586Z,86.47
2019-01-03T02:06:50.046Z,86.46
2019-01-03T02:07:50.509Z,86.46
2019-01-03T02:08:50.970Z,86.46
2019-01-03T02:09:51.431Z,86.45
2019-01-03T02:10:51.892Z,86.45
2019-01-03T02:11:52.354Z,86.45
2019-01-03T02:12:52.822Z,86.45
2019-01-03T02:13:53.273Z,86.45
2019-01-03T02:14:53.733Z,86.45
2019-01-03T02:15:54.193Z,86.42
2019-01-03T02:16:54.656Z,86.42
2019-01-03T02:17:55.165Z,86.40
2019-01-03T02:18:55.576Z,86.40
2019-01-03T02:19:56.038Z,86.40
2019-01-03T02:20:56.497Z,86.40
2019-01-03T02:21:56.955Z,86.37
2019-01-03T02:22:57.569Z,86.35
2019-01-03T02:23:57.877Z,86.39
2019-01-03T02:24:58.339Z,86.36
2019-01-03T02:25:58.801Z,86.37
2019-01-03T02:26:59.258Z,86.37
2019-01-03T02:27:59.719Z,86.38
2019-01-03T02:29:00.182Z,86.38
2019-01-03T02:30:00.646Z,86.38
2019-01-03T02:31:01.103Z,86.36
2019-01-03T02:32:01.562Z,86.37
2019-01-03T02:33:02.022Z,86.34
2019-01-03T02:34:02.483Z,86.34
2019-01-03T02:35:02.946Z,86.34
2019-01-03T02:36:03.406Z,86.35
2019-01-03T02:37:03.870Z,86.37
2019-01-03T02:38:04.325Z,86.35
2019-01-03T02:39:04.785Z,86.35
2019-01-03T02:40:05.247Z,86.33
2019-01-03T02:41:05.707Z,86.34
2019-01-03T02:42:06.166Z,86.33
2019-01-03T02:43:06.632Z,86.36
2019-01-03T02:44:07.098Z,86.34
2019-01-03T02:45:07.550Z,86.34
2019-01-03T02:46:08.007Z,86.36
2019-01-03T02:47:08.471Z,86.37
2019-01-03T02:48:08.930Z,86.37
2019-01-03T02:49:09.391Z,86.37
2019-01-03T02:50:09.852Z,86.37
2019-01-03T02:51:10.320Z,86.37
2019-01-03T02:52:10.772Z,86.37
2019-01-03T02:53:11.335Z,86.36
2019-01-03T02:54:11.692Z,86.36
2019-01-03T02:55:12.154Z,86.36
2019-01-03T02:56:12.658Z,86.36
2019-01-03T02:57:13.238Z,86.37
2019-01-03T02:58:13.538Z,86.36
2019-01-03T02:59:13.997Z,86.36
2019-01-03T03:00:14.510Z,86.36
2019-01-03T03:01:14.916Z,86.36
2019-01-03T03:02:15.375Z,86.36
2019-01-03T03:03:16.145Z,86.36
2019-01-03T03:04:16.298Z,86.34
2019-01-03T03:05:16.759Z,86.32
2019-01-03T03:06:17.223Z,86.34
2019-01-03T03:07:17.677Z,86.32
2019-01-03T03:08:18.138Z,86.34
2019-01-03T03:09:18.601Z,86.35
2019-01-03T03:10:19.062Z,86.34
2019-01-03T03:11:19.520Z,86.36
2019-01-03T03:12:19.982Z,86.36
2019-01-03T03:13:20.445Z,86.36
2019-01-03T03:14:20.903Z,86.35
2019-01-03T03:15:21.364Z,86.36
2019-01-03T03:16:21.825Z,86.36
2019-01-03T03:17:22.284Z,86.36
2019-01-03T03:18:22.795Z,86.34
2019-01-03T03:19:23.205Z,86.34
2019-01-03T03:20:23.665Z,86.36
2019-01-03T03:21:24.127Z,86.32
2019-01-03T03:22:24.588Z,86.32
2019-01-03T03:23:25.047Z,86.34
2019-01-03T03:24:25.506Z,86.31
2019-01-03T03:25:25.967Z,86.31
2019-01-03T03:26:26.427Z,86.31
2019-01-03T03:27:26.890Z,86.31
2019-01-03T03:28:27.349Z,86.31
2019-01-03T03:29:27.810Z,86.31
2019-01-03T03:30:28.272Z,86.30
2019-01-03T03:31:28.730Z,86.30
2019-01-03T03:32:29.195Z,86.30
2019-01-03T03:33:29.652Z,86.31
2019-01-03T03:34:30.111Z,86.30
2019-01-03T03:35:30.582Z,86.28
2019-01-03T03:36:31.038Z,86.30
2019-01-03T03:37:31.495Z,86.30
2019-01-03T03:38:32.003Z,86.33
2019-01-03T03:39:32.412Z,86.34
2019-01-03T03:40:32.874Z,86.35
2019-01-03T03:41:33.334Z,86.35
2019-01-03T03:42:33.793Z,86.37
2019-01-03T03:43:34.255Z,86.39
2019-01-03T03:44:34.716Z,86.39
2019-01-03T03:45:35.178Z,86.38
2019-01-03T03:46:35.637Z,86.40
2019-01-03T03:47:36.097Z,86.41
2019-01-03T03:48:36.561Z,86.41
2019-01-03T03:49:37.020Z,86.40
2019-01-03T03:50:37.478Z,86.41
2019-01-03T03:51:37.942Z,86.41
2019-01-03T03:52:38.398Z,86.41
2019-01-03T03:53:38.863Z,86.41
2019-01-03T03:54:39.321Z,86.41
2019-01-03T03:55:39.780Z,86.41
2019-01-03T03:56:40.242Z,86.42
2019-01-03T03:57:40.702Z,86.42
2019-01-03T03:58:41.160Z,86.42
2019-01-03T03:59:41.625Z,86.42
2019-01-03T04:00:42.085Z,86.42
2019-01-03T04:01:42.567Z,86.42
2019-01-03T04:02:43.003Z,86.40
2019-01-03T04:03:43.465Z,86.41
2019-01-03T04:04:43.925Z,86.38
2019-01-03T04:05:44.386Z,86.37
2019-01-03T04:06:44.846Z,86.38
2019-01-03T04:07:45.306Z,86.37
2019-01-03T04:08:45.768Z,86.37
2019-01-03T04:09:46.228Z,86.37
2019-01-03T04:10:46.686Z,86.37
2019-01-03T04:11:47.149Z,86.37
2019-01-03T04:12:47.609Z,86.37
2019-01-03T04:13:48.071Z,86.37
2019-01-03T04:14:48.530Z,86.35
2019-01-03T04:15:48.992Z,86.35
2019-01-03T04:16:49.452Z,86.33
2019-01-03T04:17:49.913Z,86.37
2019-01-03T04:18:50.372Z,86.37
2019-01-03T04:19:50.832Z,86.37
2019-01-03T04:20:51.297Z,86.36
2019-01-03T04:21:51.755Z,86.36
2019-01-03T04:22:52.212Z,86.37
2019-01-03T04:23:52.676Z,86.35
2019-01-03T04:24:53.137Z,86.36
2019-01-03T04:25:53.595Z,86.35
2019-01-03T04:26:54.056Z,86.37
2019-01-03T04:27:54.515Z,86.37
2019-01-03T04:28:54.975Z,86.39
2019-01-03T04:29:55.436Z,86.41
2019-01-03T04:30:55.896Z,86.42
2019-01-03T04:31:56.360Z,86.45
2019-01-03T04:32:56.819Z,86.44
2019-01-03T04:33:57.330Z,86.46
2019-01-03T04:34:57.739Z,86.47
2019-01-03T04:35:58.200Z,86.47
2019-01-03T04:36:58.659Z,86.48
2019-01-03T04:37:59.123Z,86.47
2019-01-03T04:38:59.583Z,86.48
2019-01-03T04:40:00.045Z,86.48
2019-01-03T04:41:00.508Z,86.48
2019-01-03T04:42:00.963Z,86.47
2019-01-03T04:43:01.426Z,86.48
2019-01-03T04:44:01.896Z,86.44
2019-01-03T04:45:02.342Z,86.44
2019-01-03T04:46:02.803Z,86.46
2019-01-03T04:47:03.266Z,86.44
2019-01-03T04:48:03.727Z,86.44
2019-01-03T04:49:04.237Z,86.43
2019-01-03T04:50:04.647Z,86.40
2019-01-03T04:51:05.107Z,86.39
2019-01-03T04:52:05.567Z,86.39
2019-01-03T04:53:06.027Z,86.37
2019-01-03T04:54:06.499Z,86.34
2019-01-03T04:55:06.949Z,86.34
2019-01-03T04:56:07.408Z,86.34
2019-01-03T04:57:07.869Z,86.34
2019-01-03T04:58:08.329Z,86.34
2019-01-03T04:59:08.790Z,86.33
2019-01-03T05:00:09.250Z,86.33
2019-01-03T05:01:09.710Z,86.33
2019-01-03T05:02:10.175Z,86.31
2019-01-03T05:03:10.642Z,86.33
2019-01-03T05:04:11.093Z,86.33
2019-01-03T05:05:11.551Z,86.32
2019-01-03T05:06:12.015Z,86.32
2019-01-03T05:07:12.525Z,86.32
2019-01-03T05:08:12.943Z,86.32
2019-01-03T05:09:13.574Z,86.32
2019-01-03T05:10:13.864Z,86.32
2019-01-03T05:11:14.314Z,86.32
2019-01-03T05:12:14.776Z,86.32
2019-01-03T05:13:15.237Z,86.31
2019-01-03T05:14:15.696Z,86.31
2019-01-03T05:15:16.277Z,86.31
2019-01-03T05:16:16.618Z,86.31
2019-01-03T05:17:17.078Z,86.30
2019-01-03T05:18:17.540Z,86.29
2019-01-03T05:19:17.996Z,86.27
2019-01-03T05:20:18.458Z,86.27
2019-01-03T05:21:18.929Z,86.26
2019-01-03T05:22:19.378Z,86.26
2019-01-03T05:23:19.840Z,86.26
2019-01-03T05:24:20.603Z,86.24
2019-01-03T05:25:20.763Z,86.23
2019-01-03T05:26:21.227Z,86.21
2019-01-03T05:27:21.681Z,86.21
2019-01-03T05:28:22.141Z,86.21
2019-01-03T05:29:22.603Z,86.16
2019-01-03T05:30:23.063Z,86.16
2019-01-03T05:31:23.521Z,86.16
2019-01-03T05:32:23.984Z,86.15
2019-01-03T05:33:24.443Z,86.15
2019-01-03T05:34:24.956Z,86.17
2019-01-03T05:35:25.364Z,86.14
2019-01-03T05:36:25.823Z,86.14
2019-01-03T05:37:26.283Z,86.14
2019-01-03T05:38:26.745Z,86.14
2019-01-03T05:39:27.206Z,86.11
2019-01-03T05:40:27.665Z,86.09
2019-01-03T05:41:28.126Z,86.08
2019-01-03T05:42:28.588Z,86.08
2019-01-03T05:43:29.047Z,86.10
2019-01-03T05:44:29.507Z,86.10
2019-01-03T05:45:29.967Z,86.10
2019-01-03T05:46:30.426Z,86.07
2019-01-03T05:47:30.886Z,86.09
2019-01-03T05:48:31.347Z,86.07
2019-01-03T05:49:31.861Z,86.07
2019-01-03T05:50:32.266Z,86.07
2019-01-03T05:51:32.728Z,86.06
2019-01-03T05:52:33.186Z,86.06
2019-01-03T05:53:33.651Z,86.06
2019-01-03T05:54:34.107Z,86.06
2019-01-03T05:55:34.571Z,86.03
2019-01-03T05:56:35.027Z,86.01
2019-01-03T05:57:35.492Z,86.01
2019-01-03T05:58:35.947Z,86.00
2019-01-03T05:59:36.409Z,86.00
2019-01-03T06:00:36.867Z,86.00
2019-01-03T06:01:37.337Z,85.98
2019-01-03T06:02:37.792Z,85.99
2019-01-03T06:03:38.250Z,85.97
2019-01-03T06:04:38.760Z,85.97
2019-01-03T06:05:39.170Z,85.95
2019-01-03T06:06:39.629Z,85.94
2019-01-03T06:07:40.088Z,85.94
2019-01-03T06:08:40.551Z,85.94
2019-01-03T06:09:41.011Z,85.93
2019-01-03T06:10:41.469Z,85.93
2019-01-03T06:11:41.930Z,85.93
2019-01-03T06:12:42.389Z,85.93
2019-01-03T06:13:42.848Z,85.93
2019-01-03T06:14:43.310Z,85.92
2019-01-03T06:15:43.769Z,85.92
2019-01-03T06:16:44.229Z,85.92
2019-01-03T06:17:44.689Z,85.92
2019-01-03T06:18:45.152Z,85.88
2019-01-03T06:19:45.608Z,85.89
2019-01-03T06:20:46.067Z,85.87
2019-01-03T06:21:46.528Z,85.87
2019-01-03T06:22:46.988Z,85.82
2019-01-03T06:23:47.449Z,85.83
2019-01-03T06:24:47.959Z,85.85
2019-01-03T06:25:48.370Z,85.83
2019-01-03T06:26:48.829Z,85.85
2019-01-03T06:27:49.289Z,85.82
2019-01-03T06:28:49.746Z,85.81
2019-01-03T06:29:50.209Z,85.82
2019-01-03T06:30:50.669Z,85.81
2019-01-03T06:31:51.128Z,85.82
2019-01-03T06:32:51.629Z,85.79
2019-01-03T06:33:52.051Z,85.79
2019-01-03T06:34:52.559Z,85.79
2019-01-03T06:35:53.804Z,85.79
2019-01-03T06:36:53.433Z,85.78
2019-01-03T06:37:53.887Z,85.74
2019-01-03T06:38:54.347Z,85.74
2019-01-03T06:39:54.857Z,85.74
2019-01-03T06:40:55.267Z,85.74
2019-01-03T06:41:55.730Z,85.73
2019-01-03T06:42:56.187Z,85.73
2019-01-03T06:43:56.647Z,85.73
2019-01-03T06:44:57.106Z,85.72
2019-01-03T06:45:57.568Z,85.76
2019-01-03T06:46:58.030Z,85.72
2019-01-03T06:47:58.489Z,85.72
2019-01-03T06:48:58.949Z,85.72
2019-01-03T06:49:59.407Z,85.72
2019-01-03T06:50:59.867Z,85.72
2019-01-03T06:52:00.327Z,85.72
2019-01-03T06:53:00.821Z,85.72
2019-01-03T06:54:01.249Z,85.72
2019-01-03T06:55:01.713Z,85.73
2019-01-03T06:56:02.169Z,85.71
2019-01-03T06:57:02.631Z,85.71
2019-01-03T06:58:03.088Z,85.71
2019-01-03T06:59:03.546Z,85.71
2019-01-03T07:00:04.008Z,85.73
2019-01-03T07:01:04.467Z,85.73
2019-01-03T07:02:04.928Z,85.75
2019-01-03T07:03:05.389Z,85.71
2019-01-03T07:04:05.847Z,85.72
2019-01-03T07:05:06.307Z,85.71
2019-01-03T07:06:06.766Z,85.73
2019-01-03T07:07:07.227Z,85.71
2019-01-03T07:08:07.690Z,85.74
2019-01-03T07:09:08.147Z,85.72
2019-01-03T07:10:08.607Z,85.74
2019-01-03T07:11:09.067Z,85.74
2019-01-03T07:12:09.526Z,85.74
2019-01-03T07:13:09.987Z,85.75
2019-01-03T07:14:10.446Z,85.73
2019-01-03T07:15:10.908Z,85.74
2019-01-03T07:16:11.380Z,85.73
2019-01-03T07:17:11.827Z,85.74
2019-01-03T07:18:12.289Z,85.73
2019-01-03T07:19:12.746Z,85.73
2019-01-03T07:20:13.254Z,85.75
2019-01-03T07:21:13.665Z,85.75
2019-01-03T07:22:14.128Z,85.75
2019-01-03T07:23:14.592Z,85.75
2019-01-03T07:24:15.050Z,85.75
2019-01-03T07:25:15.507Z,85.73
2019-01-03T07:26:15.966Z,85.75
2019-01-03T07:27:16.425Z,85.75
2019-01-03T07:28:16.884Z,85.73
2019-01-03T07:29:17.347Z,85.75
2019-01-03T07:30:17.806Z,85.75
2019-01-03T07:31:18.266Z,85.75
2019-01-03T07:32:18.727Z,85.75
2019-01-03T07:33:19.184Z,85.75
2019-01-03T07:34:19.645Z,85.76
2019-01-03T07:35:20.106Z,85.76
2019-01-03T07:36:20.565Z,85.75
2019-01-03T07:37:21.027Z,85.75
2019-01-03T07:38:21.485Z,85.76
2019-01-03T07:39:21.944Z,85.76
2019-01-03T07:40:22.403Z,85.72
2019-01-03T07:41:22.865Z,85.76
2019-01-03T07:42:23.324Z,85.74
2019-01-03T07:43:23.790Z,85.74
2019-01-03T07:44:24.244Z,85.76
2019-01-03T07:45:24.703Z,85.76
2019-01-03T07:46:25.166Z,85.76
2019-01-03T07:47:25.626Z,85.74
2019-01-03T07:48:26.085Z,85.74
2019-01-03T07:49:26.545Z,85.76
2019-01-03T07:50:27.005Z,85.74
2019-01-03T07:51:27.472Z,85.76
2019-01-03T07:52:27.924Z,85.74
2019-01-03T07:53:28.384Z,85.73
2019-01-03T07:54:28.846Z,85.76
2019-01-03T07:55:29.306Z,85.77
2019-01-03T07:56:29.764Z,85.76
2019-01-03T07:57:30.225Z,85.74
2019-01-03T07:58:30.685Z,85.76
2019-01-03T07:59:31.148Z,85.77
2019-01-03T08:00:31.604Z,85.74
2019-01-03T08:01:32.066Z,85.72
2019-01-03T08:02:32.532Z,85.77
2019-01-03T08:03:32.986Z,85.77
2019-01-03T08:04:33.444Z,85.77
2019-01-03T08:05:33.904Z,85.77
2019-01-03T08:06:34.366Z,85.77
2019-01-03T08:07:34.825Z,85.77
2019-01-03T08:08:35.284Z,85.77
2019-01-03T08:09:35.745Z,85.77
2019-01-03T08:10:36.253Z,85.77
2019-01-03T08:11:36.665Z,85.77
2019-01-03T08:12:37.124Z,85.77
2019-01-03T08:13:37.584Z,85.75
2019-01-03T08:14:38.044Z,85.75
2019-01-03T08:15:38.555Z,85.74
2019-01-03T08:16:38.963Z,85.77
2019-01-03T08:17:39.423Z,85.75
2019-01-03T08:18:39.886Z,85.78
2019-01-03T08:19:40.343Z,85.78
2019-01-03T08:20:40.802Z,85.77
2019-01-03T08:21:41.263Z,85.77
2019-01-03T08:22:41.724Z,85.80
2019-01-03T08:23:42.182Z,85.82
2019-01-03T08:24:42.641Z,85.83
2019-01-03T08:25:43.103Z,85.83
2019-01-03T08:26:43.561Z,85.83
2019-01-03T08:27:44.024Z,85.83
2019-01-03T08:28:44.484Z,85.84
2019-01-03T08:29:44.941Z,85.84
2019-01-03T08:30:45.453Z,85.84
2019-01-03T08:31:45.863Z,85.86
2019-01-03T08:32:46.322Z,85.86
2019-01-03T08:33:46.781Z,85.84
2019-01-03T08:34:47.241Z,85.87
2019-01-03T08:35:47.703Z,85.89
2019-01-03T08:36:48.161Z,85.85
2019-01-03T08:37:48.621Z,85.87
2019-01-03T08:38:49.079Z,85.90
2019-01-03T08:39:49.540Z,85.90
2019-01-03T08:40:49.999Z,85.90
2019-01-03T08:41:50.461Z,85.92
2019-01-03T08:42:50.920Z,85.94
2019-01-03T08:43:51.380Z,85.96
2019-01-03T08:44:51.838Z,85.96
2019-01-03T08:45:52.299Z,85.96
2019-01-03T08:46:52.758Z,85.98
2019-01-03T08:47:53.220Z,85.97
2019-01-03T08:48:53.679Z,85.97
2019-01-03T08:49:54.142Z,85.98
2019-01-03T08:50:54.599Z,85.98
2019-01-03T08:51:55.059Z,86.00
2019-01-03T08:52:55.517Z,86.00
2019-01-03T08:53:55.979Z,85.99
2019-01-03T08:54:56.438Z,86.03
2019-01-03T08:55:56.899Z,86.03
2019-01-03T08:56:57.359Z,86.04
2019-01-03T08:57:57.818Z,86.04
2019-01-03T08:58:58.276Z,86.04
2019-01-03T08:59:58.738Z,86.07
2019-01-03T09:00:59.196Z,86.05
2019-01-03T09:01:59.656Z,86.07
2019-01-03T09:03:00.118Z,86.06
2019-01-03T09:04:00.581Z,86.06
2019-01-03T09:05:01.036Z,86.06
2019-01-03T09:06:01.497Z,86.06
2019-01-03T09:07:01.957Z,86.07
2019-01-03T09:08:02.415Z,86.07
2019-01-03T09:09:02.876Z,86.07
2019-01-03T09:10:03.338Z,86.05
2019-01-03T09:11:03.798Z,86.03
2019-01-03T09:12:04.256Z,86.03
2019-01-03T09:13:04.714Z,86.05
2019-01-03T09:14:05.176Z,86.07
2019-01-03T09:15:05.635Z,86.07
2019-01-03T09:16:06.095Z,86.08
2019-01-03T09:17:06.559Z,86.08
2019-01-03T09:18:09.716Z,86.08
2019-01-03T09:19:07.474Z,86.08
2019-01-03T09:20:07.936Z,86.08
2019-01-03T09:21:08.394Z,86.10
2019-01-03T09:22:08.856Z,86.09
2019-01-03T09:23:09.316Z,86.10
2019-01-03T09:24:09.776Z,86.11
2019-01-03T09:25:10.236Z,86.12
2019-01-03T09:26:10.748Z,86.14
2019-01-03T09:27:12.475Z,86.14
2019-01-03T09:28:11.617Z,86.14
2019-01-03T09:29:12.072Z,86.15
2019-01-03T09:30:12.534Z,86.15
2019-01-03T09:31:12.995Z,86.15
2019-01-03T09:32:13.455Z,86.20
2019-01-03T09:33:13.913Z,86.20
2019-01-03T09:34:14.373Z,86.20
2019-01-03T09:35:14.833Z,86.21
2019-01-03T09:36:15.293Z,86.21
2019-01-03T09:37:15.754Z,86.21
2019-01-03T09:38:16.216Z,86.22
2019-01-03T09:39:16.673Z,86.26
2019-01-03T09:40:17.133Z,86.27
2019-01-03T09:41:17.592Z,86.27
2019-01-03T09:42:18.052Z,86.28
2019-01-03T09:43:18.514Z,86.28
2019-01-03T09:44:18.975Z,86.28
2019-01-03T09:45:19.437Z,86.28
2019-01-03T09:46:19.942Z,86.29
2019-01-03T09:47:20.352Z,86.29
2019-01-03T09:48:20.814Z,86.27
2019-01-03T09:49:21.272Z,86.26
2019-01-03T09:50:21.733Z,86.25
2019-01-03T09:51:22.346Z,86.25
2019-01-03T09:52:22.652Z,86.26
2019-01-03T09:53:23.122Z,86.26
2019-01-03T09:54:23.576Z,86.28
2019-01-03T09:55:24.033Z,86.30
2019-01-03T09:56:24.494Z,86.30
2019-01-03T09:57:24.956Z,86.30
2019-01-03T09:58:25.413Z,86.32
2019-01-03T09:59:25.875Z,86.36
2019-01-03T10:00:26.335Z,86.36
2019-01-03T10:01:26.797Z,86.36
2019-01-03T10:02:27.256Z,86.34
2019-01-03T10:03:27.715Z,86.33
2019-01-03T10:04:28.174Z,86.32
2019-01-03T10:05:28.633Z,86.33
2019-01-03T10:06:29.144Z,86.33
2019-01-03T10:07:29.555Z,86.33
2019-01-03T10:08:30.014Z,86.33
2019-01-03T10:09:30.475Z,86.38
2019-01-03T10:10:30.937Z,86.38
2019-01-03T10:11:31.394Z,86.39
2019-01-03T10:12:31.855Z,86.43
2019-01-03T10:13:32.316Z,86.44
2019-01-03T10:14:32.776Z,86.44
2019-01-03T10:15:33.239Z,86.44
2019-01-03T10:16:33.699Z,86.45
2019-01-03T10:17:34.156Z,86.45
2019-01-03T10:18:34.617Z,86.48
2019-01-03T10:19:35.080Z,86.48
2019-01-03T10:20:35.546Z,86.47
2019-01-03T10:21:36.005Z,86.48
2019-01-03T10:22:36.459Z,86.51
2019-01-03T10:23:36.918Z,86.51
2019-01-03T10:24:37.390Z,86.52
2019-01-03T10:25:37.850Z,86.50
2019-01-03T10:26:38.373Z,86.50
2019-01-03T10:27:38.780Z,86.49
2019-01-03T10:28:39.220Z,86.51
2019-01-03T10:29:39.678Z,86.53
2019-01-03T10:30:40.139Z,86.53
2019-01-03T10:31:40.603Z,86.54
2019-01-03T10:32:41.081Z,86.54
2019-01-03T10:33:41.529Z,86.54
2019-01-03T10:34:42.001Z,86.54
2019-01-03T10:35:42.441Z,86.55
2019-01-03T10:36:42.932Z,86.55
2019-01-03T10:37:43.380Z,86.55
2019-01-03T10:38:43.831Z,86.55
2019-01-03T10:39:44.293Z,86.58
2019-01-03T10:40:44.824Z,86.60
2019-01-03T10:41:45.211Z,86.62
2019-01-03T10:42:45.687Z,86.63
2019-01-03T10:43:46.143Z,86.66
2019-01-03T10:44:46.592Z,86.66
2019-01-03T10:45:47.062Z,86.66
2019-01-03T10:46:47.524Z,86.67
2019-01-03T10:47:47.994Z,86.68
2019-01-03T10:48:48.454Z,86.68
2019-01-03T10:49:48.915Z,86.72
2019-01-03T10:50:49.374Z,86.71
2019-01-03T10:51:49.840Z,86.72
2019-01-03T10:52:50.295Z,86.73
2019-01-03T10:53:50.754Z,86.73
2019-01-03T10:54:51.214Z,86.74
2019-01-03T10:55:51.677Z,86.75
2019-01-03T10:56:52.128Z,86.75
2019-01-03T10:57:52.595Z,86.75
2019-01-03T10:58:53.058Z,86.76
2019-01-03T10:59:53.516Z,86.76
2019-01-03T11:00:53.977Z,86.76
2019-01-03T11:01:54.490Z,86.76
2019-01-03T11:02:54.898Z,86.76
2019-01-03T11:03:55.358Z,86.77
2019-01-03T11:04:55.822Z,86.77
2019-01-03T11:05:56.283Z,86.77
2019-01-03T11:06:56.789Z,86.77
2019-01-03T11:07:57.199Z,86.78
2019-01-03T11:08:57.660Z,86.78
2019-01-03T11:09:58.119Z,86.80
2019-01-03T11:11:02.084Z,86.83
2019-01-03T11:11:59.041Z,86.83
2019-01-03T11:12:59.503Z,86.83
2019-01-03T11:13:59.961Z,86.87
2019-01-03T11:15:00.422Z,86.88
2019-01-03T11:16:00.888Z,86.84
2019-01-03T11:17:01.343Z,86.79
2019-01-03T11:18:01.802Z,86.80
2019-01-03T11:19:02.263Z,86.76
2019-01-03T11:20:02.722Z,86.72
2019-01-03T11:21:03.186Z,86.72
2019-01-03T11:22:03.649Z,86.71
2019-01-03T11:23:04.103Z,86.70
2019-01-03T11:24:04.566Z,86.70
2019-01-03T11:25:05.027Z,86.67
2019-01-03T11:26:05.487Z,86.67
2019-01-03T11:27:05.947Z,86.67
2019-01-03T11:28:06.407Z,86.62
2019-01-03T11:29:06.870Z,86.62
2019-01-03T11:30:07.329Z,86.58
2019-01-03T11:31:07.788Z,86.59
2019-01-03T11:32:08.299Z,86.56
2019-01-03T11:33:08.711Z,86.56
2019-01-03T11:34:09.170Z,86.56
2019-01-03T11:35:09.632Z,86.55
2019-01-03T11:36:10.095Z,86.55
2019-01-03T11:37:10.604Z,86.53
2019-01-03T11:38:11.003Z,86.52
2019-01-03T11:39:11.475Z,86.52
2019-01-03T11:40:11.936Z,86.54
2019-01-03T11:41:12.391Z,86.54
2019-01-03T11:42:12.845Z,86.56
2019-01-03T11:43:13.316Z,86.54
2019-01-03T11:44:13.778Z,86.56
2019-01-03T11:45:14.241Z,86.58
2019-01-03T11:46:14.689Z,86.58
2019-01-03T11:47:15.158Z,86.58
2019-01-03T11:48:15.620Z,86.57
2019-01-03T11:49:16.083Z,86.57
2019-01-03T11:50:16.533Z,86.57
2019-01-03T11:51:17.003Z,86.57
2019-01-03T11:52:17.465Z,86.57
2019-01-03T11:53:17.926Z,86.57
2019-01-03T11:54:18.386Z,86.57
2019-01-03T11:55:18.849Z,86.53
2019-01-03T11:56:19.308Z,86.55
2019-01-03T11:57:19.768Z,86.56
2019-01-03T11:58:20.229Z,86.55
2019-01-03T11:59:20.689Z,86.54
2019-01-03T12:00:21.153Z,86.55
2019-01-03T12:01:21.594Z,86.55
2019-01-03T12:02:25.536Z,86.56
2019-01-03T12:03:22.534Z,86.57
2019-01-03T12:04:22.996Z,86.61
2019-01-03T12:05:23.446Z,86.62
2019-01-03T12:06:23.917Z,86.66
2019-01-03T12:07:24.381Z,86.70
2019-01-03T12:08:24.833Z,86.70
2019-01-03T12:09:25.308Z,86.75
2019-01-03T12:10:25.763Z,86.76
2019-01-03T12:11:26.223Z,86.76
2019-01-03T12:12:26.685Z,86.79
2019-01-03T12:13:27.148Z,86.77
2019-01-03T12:14:27.606Z,86.80
2019-01-03T12:15:28.067Z,86.82
2019-01-03T12:16:28.529Z,86.83
2019-01-03T12:17:28.991Z,86.85
2019-01-03T12:18:29.450Z,86.88
2019-01-03T12:19:29.918Z,86.89
2019-01-03T12:20:30.376Z,86.93
2019-01-03T12:21:30.840Z,86.94
2019-01-03T12:22:31.298Z,86.90
2019-01-03T12:23:31.758Z,86.90
2019-01-03T12:24:32.220Z,86.91
2019-01-03T12:25:32.683Z,86.89
2019-01-03T12:26:33.141Z,86.86
2019-01-03T12:27:33.604Z,86.86
2019-01-03T12:28:34.069Z,86.86
2019-01-03T12:29:34.527Z,86.86
2019-01-03T12:30:34.986Z,86.82
2019-01-03T12:31:35.449Z,86.82
2019-01-03T12:32:35.961Z,86.82
2019-01-03T12:33:36.370Z,86.77
2019-01-03T12:34:36.831Z,86.77
2019-01-03T12:35:37.294Z,86.77
2019-01-03T12:36:37.754Z,86.76
2019-01-03T12:37:38.219Z,86.76
2019-01-03T12:38:38.683Z,86.76
2019-01-03T12:39:39.141Z,86.76
2019-01-03T12:40:39.600Z,86.80
2019-01-03T12:41:40.062Z,86.79
2019-01-03T12:42:40.524Z,86.79
2019-01-03T12:43:40.983Z,86.80
2019-01-03T12:44:41.447Z,86.80
2019-01-03T12:45:41.907Z,86.84
2019-01-03T12:46:42.370Z,86.84
2019-01-03T12:47:42.882Z,86.84
2019-01-03T12:48:45.620Z,86.84
2019-01-03T12:49:43.753Z,86.86
2019-01-03T12:50:44.213Z,86.85
2019-01-03T12:51:44.679Z,86.86
2019-01-03T12:52:45.137Z,86.84
2019-01-03T12:53:45.598Z,86.84
2019-01-03T12:54:46.060Z,86.80
2019-01-03T12:55:46.523Z,86.79
2019-01-03T12:56:46.984Z,86.79
2019-01-03T12:57:47.444Z,86.77
2019-01-03T12:58:47.906Z,86.75